Time;durP1;ratioP1;P1;durP2;ratioP2;P2;SDS_P1;SDS_P2;PMS_P1;PMS_P2;Temp;Humidity;BMP_temperature;BMP_pressure;BME280_temperature;BME280_humidity;BME280_pressure;Samples;Min_cycle;Max_cycle;Signal;HPM_P1;HPM_P2
2022/09/20 04:54:18;;;;;;;1.07;1.00;;;;;;;11.28;100.00;99458.25;6264203;22;20212;-91
2022/09/20 18:20:42;;;;;;;1.30;1.07;;;;;;;8.28;100.00;99743.16;6253620;22;20212;-78
2022/09/20 18:23:08;;;;;;;2.20;0.90;;;;;;;8.26;100.00;99731.84;6243540;23;20667;-78
2022/09/20 18:26:20;;;;;;;0.83;0.80;;;;;;;8.24;100.00;99739.25;6244518;23;20215;-78
2022/09/20 18:28:22;;;;;;;1.73;1.10;;;;;;;8.20;100.00;99742.53;6241405;23;20208;-78
2022/09/20 18:30:59;;;;;;;1.37;0.70;;;;;;;8.16;100.00;99742.13;6243301;23;20227;-78
2022/09/20 18:33:25;;;;;;;1.53;0.97;;;;;;;8.16;100.00;99742.13;6241178;23;20207;-78
2022/09/20 18:35:58;;;;;;;0.90;0.90;;;;;;;8.10;100.00;99742.91;6224145;22;20216;-78
2022/09/20 18:38:24;;;;;;;1.40;1.00;;;;;;;8.02;100.00;99736.94;6239318;22;20201;-78
2022/09/20 18:40:59;;;;;;;1.00;0.90;;;;;;;8.00;100.00;99745.13;6243048;22;20212;-78
2022/09/20 18:43:28;;;;;;;0.80;0.80;;;;;;;7.96;100.00;99743.91;6216310;23;20212;-78
2022/09/20 18:45:56;;;;;;;1.17;0.70;;;;;;;7.98;100.00;99747.16;6243013;22;20284;-78
2022/09/20 18:48:26;;;;;;;0.70;0.70;;;;;;;7.97;100.00;99754.38;6241273;22;20271;-78
2022/09/20 18:51:02;;;;;;;0.90;0.83;;;;;;;7.86;100.00;99749.59;6216108;23;20247;-79
2022/09/20 18:53:31;;;;;;;1.07;0.80;;;;;;;7.78;100.00;99751.63;6243026;22;20208;-78
2022/09/20 18:56:21;;;;;;;0.80;0.80;;;;;;;7.71;100.00;99756.09;6213690;23;20263;-77
2022/09/20 18:58:54;;;;;;;3.80;1.10;;;;;;;7.73;100.00;99760.22;6215586;23;20240;-78
2022/09/20 19:01:26;;;;;;;1.00;0.90;;;;;;;7.72;100.00;99757.75;6243215;22;20209;-78
2022/09/20 19:04:00;;;;;;;1.60;0.77;;;;;;;7.71;100.00;99764.09;6241601;23;20606;-78
2022/09/20 19:06:32;;;;;;;1.57;0.80;;;;;;;7.68;100.00;99767.16;6221245;22;20839;-78
2022/09/20 19:09:05;;;;;;;0.70;0.60;;;;;;;7.72;100.00;99771.06;6272975;22;20207;-78
2022/09/20 19:11:37;;;;;;;1.20;0.80;;;;;;;7.69;100.00;99760.81;6246679;22;20253;-78
2022/09/20 19:14:27;;;;;;;1.60;0.80;;;;;;;7.65;100.00;99773.69;6220804;23;20205;-79
2022/09/20 19:16:59;;;;;;;0.60;0.60;;;;;;;7.71;100.00;99777.44;6243313;23;20189;-78
2022/09/20 19:19:58;;;;;;;1.27;0.60;;;;;;;7.68;100.00;99777.84;6214536;23;20672;-78
2022/09/20 19:22:56;;;;;;;0.80;0.80;;;;;;;7.76;100.00;99767.81;6121011;23;20291;-78
2022/09/20 19:25:38;;;;;;;0.90;0.67;;;;;;;7.79;100.00;99778.06;6216394;23;20263;-78
2022/09/20 19:28:06;;;;;;;0.90;0.70;;;;;;;7.86;100.00;99784.28;6242668;22;20719;-78
2022/09/20 19:30:33;;;;;;;0.60;0.60;;;;;;;7.90;100.00;99782.03;6266959;22;20221;-78
2022/09/20 19:33:01;;;;;;;2.27;0.80;;;;;;;8.09;100.00;99777.81;6242907;22;20208;-78
2022/09/20 19:35:33;;;;;;;0.70;0.50;;;;;;;8.12;100.00;99785.44;6243096;22;20593;-78
2022/09/20 19:38:58;;;;;;;0.80;0.60;;;;;;;8.27;100.00;99783.41;6266481;22;20209;-78
2022/09/20 19:41:47;;;;;;;0.80;0.60;;;;;;;8.29;100.00;99784.91;6151051;23;20225;-78
2022/09/20 19:44:35;;;;;;;0.80;0.57;;;;;;;8.24;100.00;99786.47;6187491;23;20215;-78
2022/09/20 19:47:18;;;;;;;0.90;0.50;;;;;;;8.37;100.00;99783.88;6211989;22;20231;-78
2022/09/20 19:49:55;;;;;;;0.50;0.50;;;;;;;8.33;100.00;99787.97;6212592;22;20211;-78
2022/09/20 19:52:23;;;;;;;1.23;0.70;;;;;;;8.34;100.00;99782.44;6261311;22;20208;-78
2022/09/20 19:54:50;;;;;;;0.80;0.67;;;;;;;8.45;100.00;99780.19;6211138;22;20209;-78
2022/09/20 19:57:32;;;;;;;1.00;0.83;;;;;;;8.60;100.00;99779.00;6210679;23;20738;-78
2022/09/20 19:59:59;;;;;;;1.77;0.63;;;;;;;8.47;100.00;99789.66;6211073;23;20280;-78
2022/09/20 20:02:26;;;;;;;0.60;0.60;;;;;;;8.57;100.00;99794.63;6212493;22;20216;-78
2022/09/20 20:04:52;;;;;;;1.03;0.50;;;;;;;8.55;100.00;99796.66;6210850;23;20732;-78
2022/09/20 20:07:31;;;;;;;0.70;0.60;;;;;;;8.50;100.00;99797.25;6212589;22;20594;-78
2022/09/20 20:10:17;;;;;;;0.57;0.57;;;;;;;8.48;100.00;99804.66;6212865;22;20216;-78
2022/09/20 20:13:02;;;;;;;0.80;0.60;;;;;;;8.47;100.00;99812.88;6215882;22;20278;-78
2022/09/20 20:15:46;;;;;;;1.13;0.50;;;;;;;8.35;100.00;99813.44;6223667;23;20205;-78
2022/09/20 20:18:19;;;;;;;0.50;0.50;;;;;;;8.28;100.00;99809.91;6261063;22;20217;-78
2022/09/20 20:20:51;;;;;;;0.60;0.60;;;;;;;8.37;100.00;99808.72;6266499;22;20208;-78
2022/09/20 20:23:39;;;;;;;0.50;0.43;;;;;;;8.48;100.00;99806.50;6243405;22;20239;-78
2022/09/20 20:26:19;;;;;;;1.33;0.50;;;;;;;8.49;100.00;99810.84;6242344;22;20622;-78
2022/09/20 20:28:46;;;;;;;0.73;0.50;;;;;;;8.42;100.00;99818.81;6243276;22;20593;-78
2022/09/20 20:31:13;;;;;;;0.50;0.50;;;;;;;8.36;100.00;99816.94;6243134;22;20402;-78
2022/09/20 20:33:40;;;;;;;0.73;0.50;;;;;;;8.47;100.00;99815.53;6243239;22;20209;-78
2022/09/20 20:36:07;;;;;;;0.50;0.50;;;;;;;8.49;100.00;99819.63;6242723;22;20201;-78
2022/09/20 20:38:38;;;;;;;0.60;0.50;;;;;;;8.49;100.00;99819.63;6241366;23;20196;-78
2022/09/20 20:41:08;;;;;;;0.53;0.50;;;;;;;8.50;100.00;99831.16;6243783;22;20743;-78
2022/09/20 20:43:38;;;;;;;1.03;0.50;;;;;;;8.65;100.00;99829.97;6242282;23;20527;-78
2022/09/20 20:46:06;;;;;;;0.63;0.40;;;;;;;8.48;100.00;99828.69;6244441;22;20843;-78
2022/09/20 20:48:34;;;;;;;0.50;0.50;;;;;;;8.57;100.00;99832.00;6243553;23;20205;-78
2022/09/20 20:51:03;;;;;;;0.60;0.60;;;;;;;8.38;100.00;99834.41;6244998;22;20204;-78
2022/09/20 20:53:31;;;;;;;0.70;0.50;;;;;;;8.49;100.00;99838.31;6243136;23;20204;-78
2022/09/20 20:56:00;;;;;;;1.07;0.60;;;;;;;8.39;100.00;99841.41;6244830;22;20526;-78
2022/09/20 20:58:33;;;;;;;0.50;0.50;;;;;;;8.22;100.00;99842.72;6244517;22;20718;-78
2022/09/20 21:01:07;;;;;;;1.83;0.50;;;;;;;8.17;100.00;99837.16;6244992;22;20511;-78
2022/09/20 21:03:34;;;;;;;0.93;0.50;;;;;;;8.37;100.00;99840.78;6244788;22;20219;-78
2022/09/20 21:06:03;;;;;;;0.50;0.50;;;;;;;8.41;100.00;99857.22;6244678;22;20216;-78
2022/09/20 21:08:34;;;;;;;0.87;0.40;;;;;;;8.40;100.00;99848.38;6244177;22;20211;-78
2022/09/20 21:11:04;;;;;;;0.77;0.50;;;;;;;8.38;100.00;99850.44;6244984;22;20212;-78
2022/09/20 21:13:31;;;;;;;0.93;0.50;;;;;;;8.52;100.00;99859.31;6243106;23;20691;-78
2022/09/20 21:16:19;;;;;;;0.80;0.60;;;;;;;8.42;100.00;99853.53;6242803;23;20683;-78
2022/09/20 21:18:47;;;;;;;0.60;0.50;;;;;;;8.48;100.00;99857.25;6244166;22;20694;-78
2022/09/20 21:21:13;;;;;;;1.00;0.70;;;;;;;8.47;100.00;99863.59;6242947;22;20219;-79
2022/09/20 21:23:40;;;;;;;0.70;0.40;;;;;;;8.58;100.00;99863.03;6244390;22;20224;-78
2022/09/20 21:26:09;;;;;;;1.13;0.60;;;;;;;8.46;100.00;99875.28;6244448;22;20197;-78
2022/09/20 21:28:39;;;;;;;2.00;0.40;;;;;;;8.60;100.00;99869.81;6243180;23;20589;-79
2022/09/20 21:31:07;;;;;;;0.60;0.50;;;;;;;8.48;100.00;99871.41;6243147;23;20207;-77
2022/09/20 21:33:36;;;;;;;1.80;0.70;;;;;;;8.33;100.00;99873.41;6244718;22;20585;-78
2022/09/20 21:36:04;;;;;;;0.50;0.50;;;;;;;8.38;100.00;99869.13;6245853;22;20188;-78
2022/09/20 21:38:33;;;;;;;0.70;0.57;;;;;;;8.48;100.00;99875.94;6244998;23;20507;-79
2022/09/20 21:41:22;;;;;;;0.73;0.53;;;;;;;8.52;100.00;99879.84;6246279;22;20644;-79
2022/09/20 21:43:54;;;;;;;0.60;0.53;;;;;;;8.25;100.00;99879.72;6245246;23;20216;-79
2022/09/20 21:46:24;;;;;;;1.90;0.60;;;;;;;8.26;100.00;99881.34;6244460;22;20941;-79
2022/09/20 21:48:50;;;;;;;0.90;0.57;;;;;;;8.26;100.00;99881.34;6245290;23;20201;-79
2022/09/20 21:51:19;;;;;;;0.60;0.60;;;;;;;8.38;100.00;99882.47;6245649;22;20209;-78
2022/09/20 21:53:47;;;;;;;0.53;0.53;;;;;;;8.28;100.00;99892.66;6246074;22;20205;-79
2022/09/20 21:56:16;;;;;;;0.50;0.50;;;;;;;8.58;100.00;99885.22;6246143;22;20192;-79
2022/09/20 21:58:44;;;;;;;0.40;0.40;;;;;;;8.54;100.00;99886.63;6245157;23;20209;-80
2022/09/20 22:01:13;;;;;;;1.10;0.60;;;;;;;8.60;100.00;99880.50;6245171;23;20284;-80
2022/09/20 22:03:51;;;;;;;2.20;0.67;;;;;;;8.49;100.00;99888.28;6245025;23;20267;-80
2022/09/20 22:06:23;;;;;;;1.27;0.70;;;;;;;8.42;100.00;99882.06;6246184;22;20264;-79
2022/09/20 22:08:52;;;;;;;1.17;0.60;;;;;;;8.52;100.00;99890.53;6245396;23;20209;-80
2022/09/20 22:11:19;;;;;;;0.60;0.60;;;;;;;8.57;100.00;99882.75;6246532;22;20284;-80
2022/09/20 22:13:48;;;;;;;1.10;0.70;;;;;;;8.71;100.00;99881.75;6220188;23;20209;-79
2022/09/20 22:16:17;;;;;;;1.33;0.70;;;;;;;8.56;100.00;99871.22;6246415;22;20211;-79
2022/09/20 22:18:45;;;;;;;0.87;0.70;;;;;;;8.56;100.00;99884.59;6245193;23;20668;-80
2022/09/20 22:21:20;;;;;;;0.60;0.60;;;;;;;8.66;100.00;99889.56;6244424;22;20200;-80
2022/09/20 22:23:59;;;;;;;0.97;0.80;;;;;;;8.53;100.00;99886.84;6244386;23;20231;-79
2022/09/20 22:26:29;;;;;;;0.67;0.60;;;;;;;8.59;100.00;99883.34;6243798;22;20201;-80
2022/09/20 22:28:56;;;;;;;1.43;0.70;;;;;;;8.39;100.00;99884.13;6242539;23;20215;-79
2022/09/20 22:31:25;;;;;;;1.03;0.70;;;;;;;8.35;100.00;99880.19;6245780;22;20259;-79
2022/09/20 22:33:54;;;;;;;0.83;0.80;;;;;;;8.38;100.00;99879.81;6246201;22;20208;-79
2022/09/20 22:36:29;;;;;;;0.80;0.80;;;;;;;8.38;100.00;99877.13;6234758;22;20268;-79
2022/09/20 22:38:56;;;;;;;1.60;0.80;;;;;;;8.45;100.00;99881.66;6244547;23;20228;-79
2022/09/20 22:41:23;;;;;;;1.60;0.80;;;;;;;8.28;100.00;99879.31;6246010;22;20196;-80
2022/09/20 22:43:49;;;;;;;0.80;0.77;;;;;;;8.33;100.00;99887.59;6246247;22;20257;-79
2022/09/20 22:46:21;;;;;;;0.90;0.80;;;;;;;8.46;100.00;99880.63;6244987;22;20200;-79
2022/09/20 22:48:48;;;;;;;1.10;0.70;;;;;;;8.36;100.00;99889.00;6219286;23;20214;-80
2022/09/20 22:51:23;;;;;;;0.90;0.80;;;;;;;8.31;100.00;99880.78;6244042;23;20538;-79
2022/09/20 22:53:51;;;;;;;1.17;0.80;;;;;;;8.24;100.00;99885.25;6245492;22;20200;-79
2022/09/20 22:56:20;;;;;;;1.20;0.90;;;;;;;8.12;100.00;99881.50;6218365;22;20209;-79
2022/09/20 22:58:48;;;;;;;1.07;0.97;;;;;;;8.22;100.00;99884.59;6245357;22;20225;-79
2022/09/20 23:01:23;;;;;;;2.03;0.80;;;;;;;8.19;100.00;99882.34;6218723;23;20208;-79
2022/09/20 23:04:04;;;;;;;1.10;0.90;;;;;;;8.32;100.00;99885.09;6245045;22;20204;-79
2022/09/20 23:06:53;;;;;;;1.53;0.90;;;;;;;8.38;100.00;99882.47;6243948;23;20204;-79
2022/09/20 23:09:22;;;;;;;0.87;0.87;;;;;;;8.20;100.00;99881.34;6244198;23;20209;-79
2022/09/20 23:11:49;;;;;;;0.93;0.90;;;;;;;8.24;100.00;99875.41;6245319;22;20297;-79
2022/09/20 23:14:18;;;;;;;1.30;0.93;;;;;;;8.21;100.00;99885.66;6245657;22;20221;-79
2022/09/20 23:16:45;;;;;;;1.03;0.93;;;;;;;8.21;100.00;99883.78;6245274;22;20212;-79
2022/09/20 23:19:13;;;;;;;1.60;0.90;;;;;;;8.34;100.00;99885.75;6245682;22;20278;-79
2022/09/20 23:21:41;;;;;;;2.27;0.80;;;;;;;8.42;100.00;99882.88;6266841;22;20766;-79
2022/09/20 23:24:09;;;;;;;1.63;1.00;;;;;;;8.43;100.00;99875.72;6248530;22;20208;-79
2022/09/20 23:26:38;;;;;;;2.17;1.00;;;;;;;8.30;100.00;99887.16;6249053;22;20200;-79
2022/09/20 23:29:06;;;;;;;1.50;1.00;;;;;;;8.27;100.00;99885.66;6275909;22;20211;-79
2022/09/20 23:31:35;;;;;;;1.40;1.10;;;;;;;8.26;100.00;99883.19;6276206;22;20249;-79
2022/09/20 23:34:04;;;;;;;1.07;0.90;;;;;;;8.20;100.00;99871.47;6275427;22;20202;-79
2022/09/20 23:36:33;;;;;;;1.43;0.93;;;;;;;8.18;100.00;99878.03;6274512;22;20207;-79
2022/09/20 23:39:00;;;;;;;1.37;1.00;;;;;;;8.33;100.00;99886.75;6246320;22;20208;-79
2022/09/20 23:41:27;;;;;;;1.00;1.00;;;;;;;8.51;100.00;99887.03;6274257;22;20208;-80
2022/09/20 23:43:54;;;;;;;1.53;0.97;;;;;;;8.53;100.00;99882.31;6272747;22;20203;-79
2022/09/20 23:46:22;;;;;;;1.50;1.20;;;;;;;8.42;100.00;99890.06;6247835;22;20379;-80
2022/09/20 23:48:51;;;;;;;1.13;0.80;;;;;;;8.43;100.00;99876.53;6274993;22;20203;-79
2022/09/20 23:51:21;;;;;;;1.70;1.00;;;;;;;8.34;100.00;99891.91;6223859;22;20204;-79
2022/09/20 23:53:48;;;;;;;2.90;1.07;;;;;;;8.47;100.00;99890.31;6275106;22;20207;-80
2022/09/20 23:56:15;;;;;;;2.57;1.20;;;;;;;8.43;100.00;99895.22;6232736;22;20200;-80
2022/09/20 23:58:43;;;;;;;1.93;1.10;;;;;;;8.50;100.00;99900.56;6274559;22;20529;-80
